LESU

Pirineus - la Seu d'Urgel airport

Airport
ICAO code
LESU
IATA Code
LEU
Summary
ICAO Region
EUR
ICAO Territory
Location

Montferrer i Castellbò, Andorra

Serving
Andorra
Elevation
2625 ft
Coordinates
42° 20' 27" N , 1° 24' 39" E
Metar
Observation
LESU 041430Z VRB02KT 9999 FEW007 SCT050 05/02 Q1010
Station
Aeròdrom dels Pirineus-Alt Urgell Airport
Date/Time
2022-12-04 14:30:00
Wind speed
02 kts
Lowest cloud amount
few clouds
Temperature
5°C
Dew point
2°C
Humidity
80%
QNH
1010 hPa
Weather condition
n/a

Andorra–La Seu d'Urgell Airport is located in the municipality of Montferrer i Castellbò, in eastern Spain, and serves the city of la Seu d'Urgell and the microstate Principality of Andorra, which is 12 km north of the airport.

Runways

Designator Length Width Surface Rops
4/22 1340 30 ASP No/No

Airport map

Aerial View

SKYbrary Partners:

Safety knowledge contributed by: